createdAt,value
2017-08-17T00:27:20.114Z,18.10
2017-08-17T00:29:46.230Z,18.00
2017-08-17T00:32:12.478Z,18.00
2017-08-17T00:34:38.823Z,18.00
2017-08-17T00:37:05.133Z,17.90
2017-08-17T00:39:31.333Z,17.90
2017-08-17T00:41:57.590Z,17.80
2017-08-17T00:44:23.784Z,17.80
2017-08-17T00:46:50.334Z,17.70
2017-08-17T00:49:16.578Z,17.70
2017-08-17T00:51:42.829Z,17.60
2017-08-17T00:54:09.683Z,17.60
2017-08-17T00:56:36.690Z,17.50
2017-08-17T00:59:02.942Z,17.50
2017-08-17T01:01:29.111Z,17.50
2017-08-17T01:03:55.998Z,17.50
2017-08-17T01:06:22.212Z,17.40
2017-08-17T01:08:48.410Z,17.50
2017-08-17T01:11:14.657Z,17.40
2017-08-17T01:13:40.911Z,17.40
2017-08-17T01:16:07.093Z,17.30
2017-08-17T01:18:33.282Z,17.30
2017-08-17T01:20:59.451Z,17.30
2017-08-17T01:23:25.597Z,17.30
2017-08-17T01:25:51.858Z,17.40
2017-08-17T01:28:18.038Z,17.30
2017-08-17T01:30:44.183Z,17.30
2017-08-17T01:33:10.412Z,17.30
2017-08-17T01:35:36.627Z,17.30
2017-08-17T01:38:02.838Z,17.20
2017-08-17T01:40:29.721Z,17.20
2017-08-17T01:42:56.030Z,17.20
2017-08-17T01:45:22.265Z,17.20
2017-08-17T01:47:48.519Z,17.30
2017-08-17T01:50:14.735Z,17.30
2017-08-17T01:52:40.938Z,17.30
2017-08-17T01:55:07.201Z,17.30
2017-08-17T01:57:33.392Z,17.30
2017-08-17T01:59:59.558Z,17.30
2017-08-17T02:02:25.763Z,17.20
2017-08-17T02:04:51.971Z,17.20
2017-08-17T02:07:18.095Z,17.20
2017-08-17T02:09:44.425Z,17.20
2017-08-17T02:12:10.551Z,17.10
2017-08-17T02:14:36.683Z,17.10
2017-08-17T02:17:02.809Z,17.00
2017-08-17T02:19:29.646Z,16.90
2017-08-17T02:21:55.781Z,16.90
2017-08-17T02:24:22.020Z,16.90
2017-08-17T02:26:48.221Z,16.90
2017-08-17T02:29:14.349Z,16.90
2017-08-17T02:31:40.490Z,17.00
2017-08-17T02:34:06.630Z,16.90
2017-08-17T02:36:32.817Z,17.00
2017-08-17T02:38:58.989Z,17.00
2017-08-17T02:41:25.229Z,16.90
2017-08-17T02:43:51.418Z,17.00
2017-08-17T02:46:17.557Z,16.90
2017-08-17T02:48:43.768Z,16.90
2017-08-17T02:51:10.613Z,16.80
2017-08-17T02:53:36.759Z,16.80
2017-08-17T02:56:02.953Z,16.80
2017-08-17T02:58:29.089Z,16.80
2017-08-17T03:00:59.270Z,16.70
2017-08-17T03:03:25.443Z,16.60
2017-08-17T03:05:51.552Z,16.60
2017-08-17T03:08:17.727Z,16.60
2017-08-17T03:10:43.926Z,16.60
2017-08-17T03:13:10.050Z,16.60
2017-08-17T03:15:36.430Z,16.50
2017-08-17T03:18:02.594Z,16.50
2017-08-17T03:20:28.717Z,16.50
2017-08-17T03:22:55.108Z,16.50
2017-08-17T03:25:21.292Z,16.50
2017-08-17T03:27:47.495Z,16.50
2017-08-17T03:30:13.891Z,16.50
2017-08-17T03:32:40.089Z,16.50
2017-08-17T03:35:06.941Z,16.40
2017-08-17T03:37:33.900Z,16.40
2017-08-17T03:40:00.825Z,16.40
2017-08-17T03:42:27.765Z,16.40
2017-08-17T03:44:53.896Z,16.40
2017-08-17T03:47:20.853Z,16.50
2017-08-17T03:49:46.945Z,16.50
2017-08-17T03:52:13.105Z,16.40
2017-08-17T03:54:39.311Z,16.50
2017-08-17T03:57:05.430Z,16.50
2017-08-17T03:59:31.578Z,16.50
2017-08-17T04:01:58.557Z,16.60
2017-08-17T04:04:25.464Z,16.50
2017-08-17T04:06:51.698Z,16.50
2017-08-17T04:09:18.627Z,16.50
2017-08-17T04:11:45.469Z,16.50
2017-08-17T04:14:12.327Z,16.60
2017-08-17T04:16:39.551Z,16.60
2017-08-17T04:19:05.678Z,16.50
2017-08-17T04:21:32.707Z,16.50
2017-08-17T04:23:59.622Z,16.50
2017-08-17T04:26:25.852Z,16.50
2017-08-17T04:28:51.991Z,16.50
2017-08-17T04:31:18.147Z,16.50
2017-08-17T04:33:44.282Z,16.50
2017-08-17T04:36:10.441Z,16.50
2017-08-17T04:38:37.419Z,16.50
2017-08-17T04:41:03.552Z,16.50
2017-08-17T04:43:30.656Z,16.30
2017-08-17T04:45:56.859Z,16.30
2017-08-17T04:48:23.707Z,16.10
2017-08-17T04:50:50.585Z,16.10
2017-08-17T04:53:17.496Z,16.00
2017-08-17T04:55:43.592Z,16.00
2017-08-17T04:58:29.234Z,16.00
2017-08-17T05:00:55.342Z,16.00
2017-08-17T05:03:21.551Z,16.10
2017-08-17T05:05:48.544Z,16.10
2017-08-17T05:08:14.774Z,16.10
2017-08-17T05:10:41.014Z,16.20
2017-08-17T05:13:07.197Z,16.20
2017-08-17T05:15:33.409Z,16.10
2017-08-17T05:17:59.541Z,16.20
2017-08-17T05:20:25.700Z,16.00
2017-08-17T05:22:51.887Z,16.10
2017-08-17T05:25:18.043Z,16.10
2017-08-17T05:27:44.274Z,16.10
2017-08-17T05:30:11.524Z,16.30
2017-08-17T05:32:38.783Z,16.40
2017-08-17T05:35:06.062Z,16.40
2017-08-17T05:37:32.216Z,16.30
2017-08-17T05:39:58.436Z,16.40
2017-08-17T05:42:25.347Z,16.70
2017-08-17T05:44:52.261Z,16.80
2017-08-17T05:47:19.517Z,17.00
2017-08-17T05:49:46.573Z,17.00
2017-08-17T05:52:13.810Z,17.20
2017-08-17T05:54:40.654Z,17.30
2017-08-17T05:57:07.930Z,17.50
2017-08-17T05:59:34.026Z,17.50
2017-08-17T06:02:00.898Z,18.00
2017-08-17T06:04:27.847Z,18.00
2017-08-17T06:06:54.767Z,18.00
2017-08-17T06:09:21.273Z,18.00
2017-08-17T06:11:47.656Z,18.10
2017-08-17T06:14:14.573Z,18.30
2017-08-17T06:16:41.426Z,18.50
2017-08-17T06:19:08.764Z,19.00
2017-08-17T06:21:35.630Z,19.50
2017-08-17T06:24:02.166Z,19.40
2017-08-17T06:26:29.129Z,19.70
2017-08-17T06:28:55.489Z,19.70
2017-08-17T06:31:21.638Z,20.00
2017-08-17T06:33:48.214Z,20.40
2017-08-17T06:36:14.392Z,20.90
2017-08-17T06:38:41.298Z,21.80
2017-08-17T06:41:07.628Z,21.80
2017-08-17T06:43:33.802Z,22.10
2017-08-17T06:45:59.940Z,22.60
2017-08-17T06:48:26.261Z,22.30
2017-08-17T06:50:52.419Z,22.60
2017-08-17T06:53:18.637Z,23.40
2017-08-17T06:55:45.206Z,23.50
2017-08-17T06:58:11.314Z,24.10
2017-08-17T07:00:37.522Z,24.00
2017-08-17T07:03:03.974Z,24.30
2017-08-17T07:05:30.158Z,24.20
2017-08-17T07:07:56.305Z,24.50
2017-08-17T07:10:22.852Z,24.30
2017-08-17T07:12:49.112Z,24.90
2017-08-17T07:15:16.224Z,25.60
2017-08-17T07:17:42.435Z,25.50
2017-08-17T07:20:08.594Z,26.10
2017-08-17T07:22:35.028Z,26.40
2017-08-17T07:25:01.283Z,26.50
2017-08-17T07:27:27.555Z,25.60
2017-08-17T07:29:54.522Z,25.40
2017-08-17T07:32:20.759Z,25.90
2017-08-17T07:34:48.011Z,25.70
2017-08-17T07:37:15.301Z,25.70
2017-08-17T07:39:41.521Z,27.10
2017-08-17T07:42:07.794Z,27.00
2017-08-17T07:44:34.013Z,26.30
2017-08-17T07:47:00.199Z,26.40
2017-08-17T07:49:26.394Z,27.10
2017-08-17T07:51:52.609Z,26.90
2017-08-17T07:54:18.840Z,27.90
2017-08-17T07:56:44.965Z,27.30
2017-08-17T07:59:11.101Z,27.90
2017-08-17T08:01:37.354Z,27.80
2017-08-17T08:04:03.544Z,28.00
2017-08-17T08:06:29.741Z,28.20
2017-08-17T08:08:55.972Z,27.80
2017-08-17T08:11:22.135Z,28.20
2017-08-17T08:13:48.351Z,27.30
2017-08-17T08:16:14.516Z,27.00
2017-08-17T08:18:40.740Z,28.10
2017-08-17T08:21:06.944Z,28.30
2017-08-17T08:23:33.130Z,28.00
2017-08-17T08:25:59.316Z,27.70
2017-08-17T08:28:25.539Z,27.90
2017-08-17T08:30:51.800Z,28.70
2017-08-17T08:33:18.000Z,27.80
2017-08-17T08:35:44.977Z,28.70
2017-08-17T08:38:11.206Z,28.60
2017-08-17T08:40:37.377Z,27.90
2017-08-17T08:43:03.534Z,28.70
2017-08-17T08:45:29.782Z,28.70
2017-08-17T08:47:55.946Z,28.50
2017-08-17T08:50:22.091Z,29.10
2017-08-17T08:52:48.369Z,28.50
2017-08-17T08:55:14.549Z,30.30
2017-08-17T08:57:40.672Z,30.90
2017-08-17T09:00:07.619Z,30.00
2017-08-17T09:02:33.953Z,29.90
2017-08-17T09:05:00.175Z,29.10
2017-08-17T09:07:26.340Z,29.50
2017-08-17T09:09:52.523Z,30.20
2017-08-17T09:12:18.676Z,30.00
2017-08-17T09:14:44.969Z,30.00
2017-08-17T09:17:11.156Z,29.70
2017-08-17T09:19:37.344Z,29.90
2017-08-17T09:22:03.530Z,30.80
2017-08-17T09:24:30.708Z,31.60
2017-08-17T09:26:56.921Z,30.40
2017-08-17T09:29:23.110Z,29.70
2017-08-17T09:31:49.392Z,30.20
2017-08-17T09:34:15.535Z,30.70
2017-08-17T09:36:41.700Z,31.60
2017-08-17T09:39:07.889Z,31.10
2017-08-17T09:41:34.001Z,30.70
2017-08-17T09:44:00.161Z,30.90
2017-08-17T09:46:26.360Z,30.60
2017-08-17T09:48:52.495Z,30.20
2017-08-17T09:51:18.665Z,29.10
2017-08-17T09:53:45.854Z,30.10
2017-08-17T09:56:11.984Z,30.00
2017-08-17T09:58:38.159Z,30.20
2017-08-17T10:01:04.297Z,30.00
2017-08-17T10:03:30.458Z,29.80
2017-08-17T10:05:56.623Z,30.20
2017-08-17T10:08:22.838Z,31.10
2017-08-17T10:10:49.362Z,30.40
2017-08-17T10:13:15.529Z,30.70
2017-08-17T10:15:41.722Z,32.00
2017-08-17T10:18:08.556Z,31.50
2017-08-17T10:20:34.704Z,31.50
2017-08-17T10:23:01.038Z,31.70
2017-08-17T10:25:27.316Z,31.10
2017-08-17T10:27:53.517Z,31.50
2017-08-17T10:30:19.718Z,31.70
2017-08-17T10:32:45.925Z,32.00
2017-08-17T10:35:12.076Z,30.80
2017-08-17T10:37:38.185Z,33.10
2017-08-17T10:40:04.299Z,31.90
2017-08-17T10:42:31.198Z,31.20
2017-08-17T10:44:58.149Z,31.40
2017-08-17T10:47:24.299Z,31.40
2017-08-17T10:49:50.465Z,32.10
2017-08-17T10:52:16.691Z,31.90
2017-08-17T10:54:42.904Z,32.70
2017-08-17T10:57:09.068Z,32.10
2017-08-17T10:59:35.257Z,31.10
2017-08-17T11:02:01.396Z,31.20
2017-08-17T11:04:27.721Z,30.80
2017-08-17T11:06:53.877Z,31.20
2017-08-17T11:09:20.103Z,31.80
2017-08-17T11:11:46.327Z,31.90
2017-08-17T11:14:12.458Z,32.20
2017-08-17T11:16:38.640Z,32.10
2017-08-17T11:19:04.819Z,30.60
2017-08-17T11:21:31.073Z,31.30
2017-08-17T11:23:57.255Z,30.50
2017-08-17T11:26:23.520Z,31.90
2017-08-17T11:28:49.717Z,32.00
2017-08-17T11:31:15.843Z,32.50
2017-08-17T11:33:43.648Z,33.50
2017-08-17T11:36:09.839Z,33.50
2017-08-17T11:38:36.044Z,32.20
2017-08-17T11:41:03.761Z,33.50
2017-08-17T11:43:29.917Z,33.20
2017-08-17T11:45:56.171Z,33.10
2017-08-17T11:48:24.139Z,31.70
2017-08-17T11:50:50.377Z,31.70
2017-08-17T11:53:16.571Z,32.90
2017-08-17T11:55:42.725Z,33.70
2017-08-17T11:58:08.925Z,33.80
2017-08-17T12:00:35.191Z,33.60
2017-08-17T12:03:01.437Z,32.20
2017-08-17T12:05:27.638Z,32.10
2017-08-17T12:07:54.604Z,32.00
2017-08-17T12:10:20.768Z,31.90
2017-08-17T12:12:47.677Z,32.10
2017-08-17T12:15:13.869Z,32.10
2017-08-17T12:17:40.131Z,32.30
2017-08-17T12:20:06.346Z,32.40
2017-08-17T12:22:32.549Z,31.80
2017-08-17T12:24:58.718Z,31.30
2017-08-17T12:27:24.956Z,32.40
2017-08-17T12:29:51.883Z,33.40
2017-08-17T12:32:18.101Z,33.40
2017-08-17T12:34:44.304Z,31.70
2017-08-17T12:37:10.454Z,31.50
2017-08-17T12:39:36.697Z,31.60
2017-08-17T12:42:02.911Z,31.20
2017-08-17T12:44:29.153Z,31.40
2017-08-17T12:46:55.322Z,31.80
2017-08-17T12:49:21.487Z,32.70
2017-08-17T12:51:47.714Z,32.70
2017-08-17T12:54:13.973Z,32.10
2017-08-17T12:56:40.183Z,33.00
2017-08-17T12:59:06.417Z,33.20
2017-08-17T13:01:32.681Z,33.00
2017-08-17T13:03:58.866Z,32.20
2017-08-17T13:06:25.122Z,31.00
2017-08-17T13:08:51.341Z,31.00
2017-08-17T13:11:17.541Z,31.30
2017-08-17T13:13:43.819Z,30.60
2017-08-17T13:16:10.068Z,30.60
2017-08-17T13:18:36.262Z,30.60
2017-08-17T13:21:02.491Z,30.20
2017-08-17T13:23:28.702Z,30.00
2017-08-17T13:25:54.924Z,30.00
2017-08-17T13:28:21.228Z,29.90
2017-08-17T13:30:47.423Z,29.50
2017-08-17T13:33:13.630Z,29.20
2017-08-17T13:35:39.827Z,29.20
2017-08-17T13:38:06.129Z,28.90
2017-08-17T13:40:32.251Z,28.80
2017-08-17T13:42:58.410Z,28.80
2017-08-17T13:45:24.669Z,28.70
2017-08-17T13:47:50.906Z,28.70
2017-08-17T13:50:17.121Z,29.00
2017-08-17T13:52:43.371Z,29.10
2017-08-17T13:55:09.644Z,28.80
2017-08-17T13:57:35.806Z,29.00
2017-08-17T14:00:02.081Z,28.50
2017-08-17T14:02:28.263Z,28.90
2017-08-17T14:04:54.444Z,28.60
2017-08-17T14:07:20.619Z,29.00
2017-08-17T14:09:46.782Z,29.20
2017-08-17T14:12:13.026Z,28.90
2017-08-17T14:14:39.297Z,28.70
2017-08-17T14:17:06.254Z,28.80
2017-08-17T14:19:32.419Z,28.40
2017-08-17T14:21:58.601Z,28.50
2017-08-17T14:24:24.789Z,28.80
2017-08-17T14:26:50.921Z,28.90
2017-08-17T14:29:17.114Z,29.10
2017-08-17T14:31:43.325Z,29.10
2017-08-17T14:34:09.461Z,29.00
2017-08-17T14:36:36.649Z,29.20
2017-08-17T14:39:02.807Z,28.80
2017-08-17T14:41:29.014Z,28.50
2017-08-17T14:43:55.303Z,28.20
2017-08-17T14:46:21.471Z,28.20
2017-08-17T14:48:47.726Z,28.20
2017-08-17T14:51:14.005Z,28.40
2017-08-17T14:53:40.156Z,28.70
2017-08-17T14:56:06.377Z,29.30
2017-08-17T14:58:32.648Z,29.20
2017-08-17T15:00:58.830Z,29.10
2017-08-17T15:03:25.704Z,28.70
2017-08-17T15:05:51.940Z,28.70
2017-08-17T15:08:18.162Z,28.70
2017-08-17T15:10:44.293Z,28.70
2017-08-17T15:13:10.593Z,28.20
2017-08-17T15:15:37.848Z,27.90
2017-08-17T15:18:04.096Z,27.90
2017-08-17T15:20:30.326Z,27.90
2017-08-17T15:22:56.541Z,27.70
2017-08-17T15:25:22.822Z,27.60
2017-08-17T15:27:50.143Z,27.80
2017-08-17T15:30:16.256Z,27.60
2017-08-17T15:32:42.461Z,27.30
2017-08-17T15:35:08.618Z,27.40
2017-08-17T15:37:34.887Z,27.40
2017-08-17T15:40:01.058Z,27.40
2017-08-17T15:42:28.061Z,27.20
2017-08-17T15:44:54.237Z,27.10
2017-08-17T15:47:20.472Z,27.30
2017-08-17T15:49:46.783Z,27.40
2017-08-17T15:52:13.031Z,27.40
2017-08-17T15:54:39.237Z,27.20
2017-08-17T15:57:05.517Z,27.00
2017-08-17T15:59:31.690Z,27.10
2017-08-17T16:01:57.803Z,27.00
2017-08-17T16:04:24.050Z,27.00
2017-08-17T16:06:50.923Z,26.90
2017-08-17T16:09:17.116Z,26.90
2017-08-17T16:11:44.064Z,26.80
2017-08-17T16:14:11.672Z,26.60
2017-08-17T16:16:38.160Z,26.60
2017-08-17T16:19:04.292Z,26.60
2017-08-17T16:21:31.294Z,26.60
2017-08-17T16:23:57.691Z,26.60
2017-08-17T16:26:23.924Z,26.50
2017-08-17T16:28:50.163Z,26.60
2017-08-17T16:31:16.442Z,26.40
2017-08-17T16:33:42.636Z,26.50
2017-08-17T16:36:08.801Z,26.40
2017-08-17T16:38:35.002Z,26.40
2017-08-17T16:41:02.110Z,26.50
2017-08-17T16:43:28.417Z,26.50
2017-08-17T16:45:54.643Z,26.40
2017-08-17T16:48:20.936Z,26.40
2017-08-17T16:50:47.206Z,26.20
2017-08-17T16:53:14.084Z,26.30
2017-08-17T16:55:41.407Z,26.30
2017-08-17T16:58:07.674Z,26.30
2017-08-17T17:00:33.938Z,26.30
2017-08-17T17:03:00.116Z,26.10
2017-08-17T17:05:26.346Z,26.00
2017-08-17T17:07:52.576Z,25.90
2017-08-17T17:10:18.809Z,26.00
2017-08-17T17:12:45.890Z,25.90
2017-08-17T17:15:12.247Z,25.90
2017-08-17T17:17:38.598Z,26.00
2017-08-17T17:20:05.981Z,25.90
2017-08-17T17:22:32.180Z,25.90
2017-08-17T17:24:58.510Z,25.90
2017-08-17T17:27:24.749Z,25.80
2017-08-17T17:29:51.653Z,25.80
2017-08-17T17:32:18.001Z,25.70
2017-08-17T17:34:44.231Z,25.70
2017-08-17T17:37:10.536Z,25.70
2017-08-17T17:39:37.075Z,25.60
2017-08-17T17:42:03.336Z,25.60
2017-08-17T17:44:29.732Z,25.40
2017-08-17T17:46:56.094Z,25.30
2017-08-17T17:49:22.648Z,25.20
2017-08-17T17:51:48.944Z,25.20
2017-08-17T17:54:15.347Z,25.10
2017-08-17T17:56:41.585Z,25.00
2017-08-17T17:59:07.740Z,25.00
2017-08-17T18:01:34.034Z,25.00
2017-08-17T18:04:00.205Z,24.90
2017-08-17T18:06:26.444Z,24.90
2017-08-17T18:08:52.765Z,24.90
2017-08-17T18:11:19.126Z,24.80
2017-08-17T18:13:45.329Z,24.70
2017-08-17T18:16:11.573Z,24.70
2017-08-17T18:18:37.744Z,24.70
2017-08-17T18:21:03.992Z,24.60
2017-08-17T18:23:30.191Z,24.60
2017-08-17T18:25:56.391Z,24.60
2017-08-17T18:28:22.601Z,24.60
2017-08-17T18:30:48.838Z,24.60
2017-08-17T18:33:15.056Z,24.60
2017-08-17T18:35:41.213Z,24.60
2017-08-17T18:38:07.456Z,24.50
2017-08-17T18:40:33.638Z,24.30
2017-08-17T18:43:00.136Z,24.20
2017-08-17T18:45:26.520Z,24.10
2017-08-17T18:47:52.930Z,24.00
2017-08-17T18:50:20.179Z,23.80
2017-08-17T18:52:46.535Z,23.80
2017-08-17T18:55:13.151Z,23.80
2017-08-17T18:57:39.554Z,23.60
2017-08-17T19:00:06.041Z,23.40
2017-08-17T19:02:32.383Z,23.10
2017-08-17T19:04:58.652Z,23.00
2017-08-17T19:07:25.280Z,22.90
2017-08-17T19:09:51.564Z,22.80
2017-08-17T19:12:17.822Z,22.80
2017-08-17T19:14:44.097Z,22.60
2017-08-17T19:17:10.354Z,22.50
2017-08-17T19:19:36.612Z,22.40
2017-08-17T19:22:03.762Z,22.30
2017-08-17T19:24:30.110Z,22.30
2017-08-17T19:26:56.834Z,22.40
2017-08-17T19:29:23.236Z,22.50
2017-08-17T19:31:49.609Z,22.50
2017-08-17T19:34:16.037Z,22.50
2017-08-17T19:36:42.382Z,22.40
2017-08-17T19:39:08.670Z,22.20
2017-08-17T19:41:34.953Z,22.00
2017-08-17T19:44:01.272Z,22.00
2017-08-17T19:46:27.549Z,21.90
2017-08-17T19:48:53.802Z,21.90
2017-08-17T19:51:20.022Z,21.90
2017-08-17T19:53:46.235Z,21.90
2017-08-17T19:56:12.590Z,21.90
2017-08-17T19:58:38.910Z,21.90
2017-08-17T20:01:05.121Z,21.90
2017-08-17T20:03:31.366Z,21.90
2017-08-17T20:05:58.305Z,21.90
2017-08-17T20:08:24.500Z,21.90
2017-08-17T20:10:51.468Z,21.90
2017-08-17T20:13:17.639Z,21.90
2017-08-17T20:15:43.934Z,21.90
2017-08-17T20:18:10.037Z,21.90
2017-08-17T20:20:36.285Z,22.00
2017-08-17T20:23:02.593Z,22.00
2017-08-17T20:25:29.459Z,22.00
2017-08-17T20:27:55.914Z,22.00
2017-08-17T20:30:22.098Z,22.00
2017-08-17T20:32:48.995Z,21.90
2017-08-17T20:35:16.758Z,21.90
2017-08-17T20:37:42.938Z,21.90
2017-08-17T20:40:09.057Z,21.90
2017-08-17T20:42:35.549Z,21.90
2017-08-17T20:45:02.476Z,21.90
2017-08-17T20:47:28.589Z,21.80
2017-08-17T20:49:55.046Z,21.90
2017-08-17T20:52:22.034Z,21.90
2017-08-17T20:54:48.256Z,21.80
2017-08-17T20:57:14.696Z,21.90
2017-08-17T20:59:40.913Z,22.20
2017-08-17T21:02:07.073Z,22.30
2017-08-17T21:04:33.636Z,22.20
2017-08-17T21:06:59.746Z,22.10
2017-08-17T21:09:25.981Z,22.20
2017-08-17T21:11:53.041Z,22.30
2017-08-17T21:14:19.248Z,22.30
2017-08-17T21:16:45.364Z,22.30
2017-08-17T21:19:11.819Z,22.30
2017-08-17T21:21:38.042Z,22.20
2017-08-17T21:24:04.273Z,22.20
2017-08-17T21:26:30.958Z,22.20
2017-08-17T21:28:57.210Z,22.20
2017-08-17T21:31:23.413Z,22.30
2017-08-17T21:33:49.919Z,22.30
2017-08-17T21:36:16.162Z,22.40
2017-08-17T21:38:42.387Z,22.30
2017-08-17T21:41:08.967Z,22.40
2017-08-17T21:43:35.115Z,22.40
2017-08-17T21:46:01.222Z,22.20
2017-08-17T21:48:27.688Z,22.30
2017-08-17T21:50:53.952Z,22.30
2017-08-17T21:53:20.203Z,22.20
2017-08-17T21:55:46.685Z,22.30
2017-08-17T21:58:12.876Z,22.10
2017-08-17T22:00:39.056Z,22.10
2017-08-17T22:03:05.592Z,22.10
2017-08-17T22:05:32.496Z,22.30
2017-08-17T22:07:59.366Z,22.20
2017-08-17T22:10:25.916Z,22.10
2017-08-17T22:12:52.106Z,22.20
2017-08-17T22:15:19.048Z,22.10
2017-08-17T22:17:46.096Z,22.20
2017-08-17T22:20:12.222Z,22.10
2017-08-17T22:22:38.338Z,22.00
2017-08-17T22:25:04.812Z,22.00
2017-08-17T22:27:31.725Z,22.10
2017-08-17T22:29:58.569Z,22.10
2017-08-17T22:32:25.138Z,22.10
2017-08-17T22:34:51.330Z,22.10
2017-08-17T22:37:17.453Z,22.00
2017-08-17T22:39:44.676Z,21.80
2017-08-17T22:42:10.855Z,21.80
2017-08-17T22:44:37.055Z,21.80
2017-08-17T22:47:03.520Z,21.80
2017-08-17T22:49:29.742Z,21.70
2017-08-17T22:51:55.952Z,21.60
2017-08-17T22:54:22.415Z,21.50
2017-08-17T22:56:48.600Z,21.60
2017-08-17T22:59:14.718Z,21.50
2017-08-17T23:01:41.305Z,21.50
2017-08-17T23:04:07.522Z,21.50
2017-08-17T23:06:33.730Z,21.50
2017-08-17T23:08:59.973Z,21.30
2017-08-17T23:11:26.921Z,21.40
2017-08-17T23:13:53.113Z,21.40
2017-08-17T23:16:19.289Z,21.40
2017-08-17T23:18:45.413Z,21.30
2017-08-17T23:21:11.626Z,21.30
2017-08-17T23:23:37.865Z,21.30
2017-08-17T23:26:04.858Z,21.20
2017-08-17T23:28:31.002Z,21.20
2017-08-17T23:30:57.293Z,21.20
2017-08-17T23:33:23.416Z,21.20
2017-08-17T23:35:49.526Z,21.10
2017-08-17T23:38:15.765Z,21.10
2017-08-17T23:40:41.962Z,21.10
2017-08-17T23:43:08.178Z,21.10
2017-08-17T23:45:35.080Z,21.20
2017-08-17T23:48:01.263Z,21.20
2017-08-17T23:50:27.456Z,21.30
2017-08-17T23:52:53.658Z,21.30
2017-08-17T23:55:19.822Z,21.20
2017-08-17T23:57:46.749Z,21.00
